Terminal Aerodrome Forecast
Issued by NWS Jackson, MS

Current Version | Previous Version | Text Only | Print | Product List | Glossary On
Versions: 1 2 3 4 5 6 7 8 9 10 11 12 13 14 15
000
FTUS44 KMEG 231243 AAB
TAFTUP
TAF AMD
KTUP 231243Z 2313/2412 14011KT 3SM BR OVC005
     FM231400 14011KT 3SM RA BR OVC007
      TEMPO 2314/2317 TS OVC007CB
     FM231700 20009KT 1 1/2SM RA BR OVC003
      TEMPO 2319/2322 TS OVC007CB
     FM240300 19012G20KT P6SM OVC050
     FM241000 23014G22KT P6SM OVC250=

USA.gov is the U.S. government's official web portal to all federal, state and local government web resources and services.